Time;durP1;ratioP1;P1;durP2;ratioP2;P2;SDS_P1;SDS_P2;PMS_P1;PMS_P2;Temp;Humidity;BMP_temperature;BMP_pressure;BME280_temperature;BME280_humidity;BME280_pressure;Samples;Min_cycle;Max_cycle;Signal;HPM_P1;HPM_P2
2021/04/30 00:01:29;;;;;;;19.17;10.02;;;;;;;6.56;100.00;101245.91;5057427;28;21481;-77
2021/04/30 00:03:54;;;;;;;20.67;8.13;;;;;;;6.61;100.00;101237.03;5069671;28;20121;-77
2021/04/30 00:06:20;;;;;;;19.75;8.48;;;;;;;6.61;100.00;101244.03;5052599;28;20605;-78
2021/04/30 00:08:45;;;;;;;28.08;9.77;;;;;;;6.60;100.00;101240.56;5061088;28;20375;-77
2021/04/30 00:11:10;;;;;;;25.70;8.98;;;;;;;6.58;100.00;101238.88;5048312;28;20028;-77
2021/04/30 00:13:37;;;;;;;26.65;9.40;;;;;;;6.53;100.00;101244.22;5062368;28;20017;-76
2021/04/30 00:16:04;;;;;;;25.23;7.90;;;;;;;6.63;100.00;101239.66;5062354;28;20028;-76
2021/04/30 00:18:29;;;;;;;27.35;8.20;;;;;;;6.68;100.00;101233.38;5063106;28;20135;-77
2021/04/30 00:20:57;;;;;;;29.70;9.13;;;;;;;6.65;100.00;101236.06;5058529;28;20066;-76
2021/04/30 00:23:26;;;;;;;21.80;8.50;;;;;;;6.62;100.00;101230.00;5060847;28;20033;-77
2021/04/30 00:25:56;;;;;;;19.80;6.57;;;;;;;6.71;100.00;101232.44;5062984;28;20032;-77
2021/04/30 00:28:23;;;;;;;22.85;7.35;;;;;;;6.60;100.00;101230.06;5060714;28;20028;-77
2021/04/30 00:30:49;;;;;;;22.75;8.30;;;;;;;6.63;100.00;101229.13;5062166;28;20112;-79
2021/04/30 00:33:15;;;;;;;21.38;8.13;;;;;;;6.65;100.00;101230.81;5061623;28;20039;-78
2021/04/30 00:35:42;;;;;;;21.00;7.72;;;;;;;6.74;100.00;101232.38;5065123;28;20039;-78
2021/04/30 00:38:08;;;;;;;20.20;8.73;;;;;;;6.75;100.00;101234.09;5060493;28;20048;-77
2021/04/30 00:40:33;;;;;;;24.95;8.35;;;;;;;6.79;100.00;101240.16;5060037;28;20079;-77
2021/04/30 00:42:58;;;;;;;18.15;7.65;;;;;;;6.83;100.00;101234.81;5061374;28;20037;-77
2021/04/30 00:45:24;;;;;;;28.35;9.65;;;;;;;6.78;100.00;101244.56;5063319;28;20025;-77
2021/04/30 00:47:52;;;;;;;21.42;7.25;;;;;;;6.83;100.00;101236.53;5065530;28;20023;-77
2021/04/30 00:50:19;;;;;;;28.42;7.32;;;;;;;6.86;100.00;101239.13;5058843;28;20028;-77
2021/04/30 00:52:44;;;;;;;20.73;7.53;;;;;;;6.91;100.00;101237.25;5062426;28;20088;-78
2021/04/30 00:55:13;;;;;;;24.92;8.50;;;;;;;6.87;100.00;101238.22;5064087;28;20076;-78
2021/04/30 00:57:40;;;;;;;23.90;7.20;;;;;;;6.90;100.00;101238.16;5064203;28;20034;-78
2021/04/30 01:00:10;;;;;;;26.08;8.50;;;;;;;6.96;100.00;101241.50;5071048;28;20055;-78
2021/04/30 01:02:36;;;;;;;23.90;7.43;;;;;;;6.91;100.00;101243.38;5066516;28;20058;-78
2021/04/30 01:05:02;;;;;;;16.70;7.57;;;;;;;6.96;100.00;101245.88;5064683;28;20477;-77
2021/04/30 01:07:30;;;;;;;28.50;7.72;;;;;;;6.95;100.00;101246.78;5063385;28;20052;-77
2021/04/30 01:09:56;;;;;;;16.90;6.53;;;;;;;6.94;100.00;101250.31;5058131;28;20028;-76
2021/04/30 01:12:22;;;;;;;31.35;8.45;;;;;;;6.99;100.00;101253.72;5063697;28;20465;-77
2021/04/30 01:14:47;;;;;;;20.42;6.93;;;;;;;6.98;100.00;101254.63;5059428;28;20040;-77
2021/04/30 01:17:13;;;;;;;16.67;6.85;;;;;;;6.98;100.00;101247.59;5063841;28;20449;-77
2021/04/30 01:19:38;;;;;;;24.80;7.25;;;;;;;7.09;100.00;101246.47;5055326;28;20039;-77
2021/04/30 01:22:03;;;;;;;19.73;7.68;;;;;;;7.02;100.00;101251.00;5056936;28;20033;-77
2021/04/30 01:24:29;;;;;;;18.98;7.10;;;;;;;7.05;100.00;101245.69;5058733;28;20046;-77
2021/04/30 01:26:54;;;;;;;23.55;6.43;;;;;;;7.01;100.00;101239.63;5051318;28;20347;-77
2021/04/30 01:29:20;;;;;;;16.58;6.88;;;;;;;7.01;100.00;101252.75;5050747;28;20123;-77
2021/04/30 01:31:45;;;;;;;18.33;5.85;;;;;;;7.04;100.00;101241.34;5055842;28;20062;-78
2021/04/30 01:34:11;;;;;;;20.30;5.80;;;;;;;7.01;100.00;101237.00;5057806;28;20028;-77
2021/04/30 01:36:37;;;;;;;21.63;6.00;;;;;;;6.94;100.00;101238.06;5058435;28;20025;-78
2021/04/30 01:39:06;;;;;;;23.90;6.05;;;;;;;6.94;100.00;101242.44;5060012;28;20043;-77
2021/04/30 01:41:32;;;;;;;25.33;6.75;;;;;;;6.86;100.00;101253.13;5060829;28;20040;-77
2021/04/30 01:43:58;;;;;;;30.60;7.57;;;;;;;6.70;100.00;101251.72;5062553;28;20031;-78
2021/04/30 01:46:23;;;;;;;23.23;7.38;;;;;;;6.75;100.00;101263.00;5064071;28;20020;-78
2021/04/30 01:48:48;;;;;;;20.90;7.43;;;;;;;6.75;100.00;101261.25;5058794;28;20025;-78
2021/04/30 01:51:14;;;;;;;18.60;5.97;;;;;;;6.75;100.00;101261.25;5061545;28;20024;-78
2021/04/30 01:53:39;;;;;;;30.00;6.60;;;;;;;6.79;100.00;101259.41;5062206;28;20048;-77
2021/04/30 01:56:06;;;;;;;26.65;6.20;;;;;;;6.81;100.00;101262.84;5055639;28;20531;-78
2021/04/30 01:58:32;;;;;;;16.05;5.38;;;;;;;6.84;100.00;101262.81;5058688;28;20113;-78
2021/04/30 02:00:58;;;;;;;13.52;5.15;;;;;;;6.90;100.00;101267.91;5059655;28;20088;-78
2021/04/30 02:03:24;;;;;;;14.00;5.30;;;;;;;6.95;100.00;101257.31;5063398;28;20368;-78
2021/04/30 02:05:50;;;;;;;17.00;5.50;;;;;;;6.94;100.00;101251.19;5054102;28;20112;-78
2021/04/30 02:08:16;;;;;;;13.80;6.07;;;;;;;6.82;100.00;101237.44;5056026;28;20082;-78
2021/04/30 02:10:43;;;;;;;17.13;5.70;;;;;;;7.01;100.00;101257.16;5057567;28;20530;-78
2021/04/30 02:13:09;;;;;;;20.75;6.00;;;;;;;7.03;100.00;101257.13;5063675;28;20024;-77
2021/04/30 02:15:38;;;;;;;20.00;6.00;;;;;;;6.98;100.00;101259.88;5062320;28;20025;-77
2021/04/30 02:18:04;;;;;;;17.95;5.70;;;;;;;7.03;100.00;101254.47;5065963;28;20036;-78
2021/04/30 02:20:29;;;;;;;17.73;6.07;;;;;;;6.98;100.00;101258.09;5064004;28;20539;-77
2021/04/30 02:22:55;;;;;;;21.70;5.72;;;;;;;7.08;100.00;101257.88;5056642;28;20080;-78
2021/04/30 02:25:22;;;;;;;17.40;6.18;;;;;;;7.02;100.00;101258.88;5054183;28;20020;-78
2021/04/30 02:27:50;;;;;;;23.08;6.35;;;;;;;7.04;100.00;101270.25;5066144;28;20052;-78
2021/04/30 02:30:18;;;;;;;18.30;6.35;;;;;;;6.97;100.00;101260.75;5061834;28;20017;-78
2021/04/30 02:32:45;;;;;;;24.55;6.18;;;;;;;7.05;100.00;101271.97;5056496;28;20020;-78
2021/04/30 02:35:14;;;;;;;14.90;5.03;;;;;;;7.09;100.00;101267.50;5060044;28;20044;-78
2021/04/30 02:37:41;;;;;;;12.32;6.13;;;;;;;7.06;100.00;101265.81;5057907;28;20025;-78
2021/04/30 02:40:09;;;;;;;13.57;5.70;;;;;;;7.12;100.00;101273.53;5065149;28;20055;-78
2021/04/30 02:42:34;;;;;;;18.48;7.05;;;;;;;7.08;100.00;101269.28;5066450;28;20025;-77
2021/04/30 02:45:02;;;;;;;24.05;5.97;;;;;;;7.00;100.00;101271.22;5061992;28;20028;-78
2021/04/30 02:47:31;;;;;;;17.98;6.38;;;;;;;7.06;100.00;101271.06;5064553;28;20024;-77
2021/04/30 02:49:58;;;;;;;23.42;6.93;;;;;;;7.09;100.00;101278.03;5058296;28;20032;-77
2021/04/30 02:52:23;;;;;;;20.98;7.28;;;;;;;6.96;100.00;101274.78;5059733;28;20029;-78
2021/04/30 02:54:49;;;;;;;37.50;8.27;;;;;;;6.88;100.00;101258.34;5058509;28;20047;-78
2021/04/30 02:57:14;;;;;;;24.13;7.20;;;;;;;6.95;100.00;101267.81;5058057;28;20033;-78
2021/04/30 02:59:40;;;;;;;18.23;7.25;;;;;;;6.98;100.00;101263.38;5066750;28;20048;-79
2021/04/30 03:02:05;;;;;;;19.02;7.45;;;;;;;6.85;100.00;101259.28;5066668;28;20017;-78
2021/04/30 03:04:31;;;;;;;19.90;7.68;;;;;;;6.92;100.00;101262.63;5071929;28;20051;-78
2021/04/30 03:06:56;;;;;;;19.88;7.53;;;;;;;6.81;100.00;101257.59;5058322;28;20033;-78
2021/04/30 03:09:22;;;;;;;22.33;8.50;;;;;;;6.83;100.00;101261.09;5060419;28;20040;-78
2021/04/30 03:11:47;;;;;;;23.13;8.38;;;;;;;6.90;100.00;101265.28;5060923;28;20033;-78
2021/04/30 03:14:13;;;;;;;19.65;8.38;;;;;;;6.82;100.00;101259.31;5064198;28;20041;-78
2021/04/30 03:16:38;;;;;;;28.85;9.80;;;;;;;6.75;100.00;101265.63;5058608;28;20028;-77
2021/04/30 03:19:04;;;;;;;32.10;11.65;;;;;;;6.73;100.00;101262.19;5058141;28;20030;-78
2021/04/30 03:21:30;;;;;;;31.25;10.30;;;;;;;6.79;100.00;101263.81;5051717;28;20025;-78
2021/04/30 03:23:55;;;;;;;27.20;10.23;;;;;;;6.73;100.00;101259.56;5058491;28;20043;-77
2021/04/30 03:26:21;;;;;;;32.40;9.43;;;;;;;6.79;100.00;101263.81;5063121;28;20021;-78
2021/04/30 03:28:46;;;;;;;20.00;8.70;;;;;;;6.69;100.00;101264.00;5061097;28;20031;-78
2021/04/30 03:31:11;;;;;;;22.10;8.82;;;;;;;6.69;100.00;101265.78;5054523;28;20124;-77
2021/04/30 03:33:38;;;;;;;23.02;9.38;;;;;;;6.73;100.00;101267.44;5057678;28;20567;-78
2021/04/30 03:36:04;;;;;;;20.65;8.93;;;;;;;6.75;100.00;101263.00;5052070;28;20037;-79
2021/04/30 03:38:30;;;;;;;22.83;8.88;;;;;;;6.72;100.00;101268.31;5070745;28;20017;-77
2021/04/30 03:40:55;;;;;;;21.70;9.68;;;;;;;6.73;100.00;101263.03;5064036;28;20070;-77
2021/04/30 03:43:20;;;;;;;20.08;9.00;;;;;;;6.69;100.00;101261.38;5065115;28;20040;-78
2021/04/30 03:45:45;;;;;;;23.33;10.27;;;;;;;6.69;100.00;101266.63;5065663;28;20021;-78
2021/04/30 03:48:11;;;;;;;23.95;9.48;;;;;;;6.77;100.00;101257.69;5057780;28;20144;-78
2021/04/30 03:50:36;;;;;;;26.45;8.32;;;;;;;6.79;100.00;101251.53;5061600;28;20031;-78
2021/04/30 03:53:02;;;;;;;23.35;7.75;;;;;;;6.75;100.00;101255.13;5061805;28;20033;-78
2021/04/30 03:55:27;;;;;;;26.90;8.35;;;;;;;6.78;100.00;101255.06;5064917;28;20080;-78
2021/04/30 03:57:52;;;;;;;29.35;8.50;;;;;;;6.70;100.00;101244.72;5059919;28;20036;-78
2021/04/30 04:00:18;;;;;;;15.93;7.55;;;;;;;6.69;100.00;101252.63;5063545;28;20123;-78
2021/04/30 04:02:46;;;;;;;23.02;8.32;;;;;;;6.77;100.00;101242.81;5059484;28;20725;-76
2021/04/30 04:05:12;;;;;;;15.32;7.68;;;;;;;6.80;100.00;101252.41;5061683;28;20041;-77
2021/04/30 04:07:37;;;;;;;18.75;7.90;;;;;;;6.79;100.00;101245.41;5060910;28;20021;-77
2021/04/30 04:10:03;;;;;;;19.23;7.53;;;;;;;6.84;100.00;101244.41;5060698;28;20494;-77
2021/04/30 04:12:28;;;;;;;17.80;7.82;;;;;;;6.86;100.00;101254.88;5062476;28;20052;-78
2021/04/30 04:14:53;;;;;;;15.55;6.72;;;;;;;6.81;100.00;101252.34;5058808;28;20099;-78
2021/04/30 04:17:19;;;;;;;26.35;7.03;;;;;;;6.79;100.00;101250.66;5066761;28;20033;-77
2021/04/30 04:19:49;;;;;;;23.55;8.43;;;;;;;6.80;100.00;101255.03;5063860;28;20024;-77
2021/04/30 04:22:17;;;;;;;19.30;7.07;;;;;;;6.81;100.00;101264.63;5062899;28;20025;-77
2021/04/30 04:24:43;;;;;;;21.10;6.40;;;;;;;6.85;100.00;101263.66;5065180;28;20041;-78
2021/04/30 04:27:09;;;;;;;20.65;7.90;;;;;;;6.79;100.00;101264.66;5060060;28;20035;-77
2021/04/30 04:29:35;;;;;;;30.38;8.23;;;;;;;6.79;100.00;101272.56;5062177;28;20029;-77
2021/04/30 04:32:00;;;;;;;25.77;7.57;;;;;;;6.84;100.00;101270.69;5059516;28;20565;-78
2021/04/30 04:34:26;;;;;;;15.32;6.05;;;;;;;6.93;100.00;101273.13;5062296;28;20035;-78
2021/04/30 04:36:51;;;;;;;26.13;5.47;;;;;;;6.87;100.00;101278.47;5060463;28;20037;-78
2021/04/30 04:39:16;;;;;;;21.00;6.63;;;;;;;6.81;100.00;101269.88;5061851;28;20037;-78
2021/04/30 04:41:42;;;;;;;23.88;7.07;;;;;;;6.81;100.00;101265.50;5056972;28;20036;-77
2021/04/30 04:44:07;;;;;;;19.83;6.72;;;;;;;6.80;100.00;101262.91;5062482;28;20028;-78
2021/04/30 04:46:32;;;;;;;21.45;6.88;;;;;;;6.77;100.00;101258.56;5065137;28;20064;-78
2021/04/30 04:48:58;;;;;;;18.38;8.23;;;;;;;6.75;100.00;101263.00;5064863;28;20044;-78
2021/04/30 04:51:23;;;;;;;16.67;7.45;;;;;;;6.79;100.00;101258.56;5060628;28;20024;-77
2021/04/30 04:53:48;;;;;;;28.65;7.18;;;;;;;6.86;100.00;101257.50;5061043;28;20029;-77
2021/04/30 04:56:14;;;;;;;21.42;6.47;;;;;;;6.88;100.00;101261.00;5057170;28;20029;-77
2021/04/30 04:58:39;;;;;;;18.65;7.00;;;;;;;6.92;100.00;101262.63;5061473;28;20389;-77
2021/04/30 05:01:06;;;;;;;28.10;6.75;;;;;;;6.94;100.00;101263.47;5061690;28;20481;-78
2021/04/30 05:03:31;;;;;;;19.08;5.18;;;;;;;7.02;100.00;101272.03;5059999;28;20037;-77
2021/04/30 05:05:57;;;;;;;20.90;5.82;;;;;;;6.96;100.00;101270.41;5061259;28;20358;-78
2021/04/30 05:08:22;;;;;;;14.98;6.32;;;;;;;6.97;100.00;101274.75;5061709;28;20089;-79
2021/04/30 05:10:48;;;;;;;17.15;6.32;;;;;;;7.03;100.00;101267.63;5065462;28;20028;-78
2021/04/30 05:13:13;;;;;;;15.55;6.00;;;;;;;6.99;100.00;101266.84;5056517;28;20073;-78
2021/04/30 05:15:38;;;;;;;16.98;5.50;;;;;;;7.06;100.00;101270.19;5063113;28;20078;-78
2021/04/30 05:18:03;;;;;;;16.00;6.72;;;;;;;7.05;100.00;101276.34;5057364;28;20028;-78
2021/04/30 05:20:29;;;;;;;15.55;6.18;;;;;;;7.09;100.00;101291.16;5061063;28;20021;-78
2021/04/30 05:22:54;;;;;;;20.80;5.60;;;;;;;7.14;100.00;101281.41;5068016;28;20028;-77
2021/04/30 05:25:20;;;;;;;25.63;6.82;;;;;;;7.03;100.00;101280.75;5057556;28;20025;-78
2021/04/30 05:27:45;;;;;;;17.40;6.18;;;;;;;7.05;100.00;101290.38;5050188;28;20039;-77
2021/04/30 05:30:12;;;;;;;28.25;6.97;;;;;;;7.09;100.00;101293.78;5044455;28;20511;-77
2021/04/30 05:32:37;;;;;;;16.20;6.78;;;;;;;7.06;100.00;101289.47;5051511;28;20025;-78
2021/04/30 05:35:04;;;;;;;24.15;7.78;;;;;;;7.00;100.00;101298.34;5060305;28;20929;-78
2021/04/30 05:37:33;;;;;;;17.63;6.47;;;;;;;7.04;100.00;101304.41;5046499;28;20040;-78
2021/04/30 05:39:59;;;;;;;24.63;6.85;;;;;;;7.13;100.00;101298.06;5047091;28;20789;-77
2021/04/30 05:42:25;;;;;;;22.40;7.07;;;;;;;7.23;100.00;101296.97;5043085;28;20025;-79
2021/04/30 05:44:52;;;;;;;19.73;6.93;;;;;;;7.17;100.00;101310.22;5052796;28;20048;-78
2021/04/30 05:47:17;;;;;;;20.50;6.25;;;;;;;7.12;100.00;101306.84;5059084;28;20111;-78
2021/04/30 05:49:43;;;;;;;32.00;8.75;;;;;;;7.08;100.00;101306.06;5057409;28;20135;-79
2021/04/30 05:52:08;;;;;;;26.42;8.43;;;;;;;7.16;100.00;101308.50;5053138;28;20041;-79
2021/04/30 05:54:33;;;;;;;24.13;7.55;;;;;;;7.20;100.00;101310.19;5060454;28;20079;-78
2021/04/30 05:56:59;;;;;;;18.90;5.82;;;;;;;7.20;100.00;101310.19;5054556;28;20048;-78
2021/04/30 05:59:24;;;;;;;21.98;6.40;;;;;;;7.26;100.00;101302.16;5056785;28;20059;-78
2021/04/30 06:01:49;;;;;;;22.25;6.97;;;;;;;7.24;100.00;101315.34;5060414;28;20024;-79
2021/04/30 06:04:16;;;;;;;19.42;7.30;;;;;;;7.22;100.00;101319.75;5054867;28;20115;-78
2021/04/30 06:06:41;;;;;;;26.00;6.88;;;;;;;7.32;100.00;101315.13;5053645;28;20025;-78
2021/04/30 06:09:06;;;;;;;23.83;6.93;;;;;;;7.27;100.00;101312.63;5052492;28;20516;-78
2021/04/30 06:11:32;;;;;;;29.38;8.55;;;;;;;7.34;100.00;101313.34;5046414;28;20524;-78
2021/04/30 06:13:57;;;;;;;22.58;7.50;;;;;;;7.33;100.00;101314.25;5055882;28;20048;-78
2021/04/30 06:16:22;;;;;;;23.35;8.15;;;;;;;7.31;100.00;101308.16;5050771;28;20032;-78
2021/04/30 06:18:48;;;;;;;23.67;8.82;;;;;;;7.23;100.00;101313.59;5053073;28;20032;-78
2021/04/30 06:21:13;;;;;;;23.88;7.97;;;;;;;7.23;100.00;101303.09;5056157;28;20063;-78
2021/04/30 06:23:38;;;;;;;26.95;8.38;;;;;;;7.25;100.00;101314.44;5052827;28;20481;-78
2021/04/30 06:26:04;;;;;;;25.33;9.35;;;;;;;7.30;100.00;101314.31;5057855;28;20036;-79
2021/04/30 06:28:29;;;;;;;30.35;9.20;;;;;;;7.34;100.00;101318.63;5051728;28;20033;-78
2021/04/30 06:30:56;;;;;;;18.77;8.73;;;;;;;7.31;100.00;101318.69;5065480;28;20029;-78
2021/04/30 06:33:22;;;;;;;28.23;8.63;;;;;;;7.40;100.00;101314.97;5053659;28;20048;-78
2021/04/30 06:35:47;;;;;;;19.95;7.63;;;;;;;7.43;100.00;101318.41;5054076;28;20032;-77
2021/04/30 06:38:13;;;;;;;24.20;8.05;;;;;;;7.62;100.00;101321.44;5046467;28;20044;-77
2021/04/30 06:40:38;;;;;;;21.90;8.38;;;;;;;7.79;100.00;101315.78;5042612;28;20029;-78
2021/04/30 06:43:03;;;;;;;23.05;8.32;;;;;;;7.94;100.00;101315.38;5044922;28;20048;-77
2021/04/30 06:45:29;;;;;;;31.50;9.43;;;;;;;7.99;100.00;101316.13;5049715;28;20118;-78
2021/04/30 06:47:54;;;;;;;22.88;9.00;;;;;;;8.12;100.00;101321.03;5050178;28;20507;-78
2021/04/30 06:50:20;;;;;;;24.05;8.45;;;;;;;8.18;100.00;101321.78;5047029;28;20029;-79
2021/04/30 06:52:46;;;;;;;20.33;7.63;;;;;;;8.12;100.00;101324.53;5051047;28;20018;-77
2021/04/30 06:55:11;;;;;;;19.77;7.82;;;;;;;8.22;100.00;101322.53;5053653;28;20058;-79
2021/04/30 06:57:37;;;;;;;21.30;8.75;;;;;;;7.97;100.00;101333.69;5047447;28;20051;-79
2021/04/30 07:00:03;;;;;;;25.80;9.63;;;;;;;7.90;100.00;101326.88;5047169;28;20072;-79
2021/04/30 07:02:29;;;;;;;27.08;10.27;;;;;;;7.93;100.00;101333.81;5053846;28;20025;-78
2021/04/30 07:04:57;;;;;;;25.10;9.20;;;;;;;7.92;100.00;101334.72;5049311;28;20027;-78
2021/04/30 07:07:22;;;;;;;25.27;9.52;;;;;;;7.89;100.00;101337.47;5050110;28;20036;-78
2021/04/30 07:09:48;;;;;;;18.25;9.63;;;;;;;7.87;100.00;101331.34;5044478;28;20103;-78
2021/04/30 07:12:14;;;;;;;34.10;10.15;;;;;;;7.88;100.00;101333.97;5054965;28;20624;-78
2021/04/30 07:14:39;;;;;;;31.85;10.07;;;;;;;7.88;100.00;101330.44;5052903;28;20036;-78
2021/04/30 07:17:04;;;;;;;36.70;11.90;;;;;;;7.92;100.00;101326.81;5052070;28;20041;-77
2021/04/30 07:19:30;;;;;;;30.13;11.45;;;;;;;7.87;100.00;101326.94;5047406;28;20388;-77
2021/04/30 07:21:55;;;;;;;30.67;12.13;;;;;;;7.87;100.00;101324.31;5042035;28;20037;-77
2021/04/30 07:24:20;;;;;;;29.10;11.02;;;;;;;7.82;100.00;101328.81;5044168;28;20041;-77
2021/04/30 07:26:45;;;;;;;29.92;11.90;;;;;;;7.88;100.00;101333.97;5043104;28;20026;-77
2021/04/30 07:29:11;;;;;;;30.90;11.88;;;;;;;7.89;100.00;101324.28;5052951;28;20025;-78
2021/04/30 07:31:37;;;;;;;28.08;11.77;;;;;;;7.93;100.00;101332.06;5054201;28;20036;-77
2021/04/30 07:34:02;;;;;;;29.08;11.25;;;;;;;7.80;100.00;101328.03;5053299;28;20443;-78
2021/04/30 07:36:27;;;;;;;22.13;11.55;;;;;;;7.78;100.00;101325.44;5051365;28;20029;-78
2021/04/30 07:38:53;;;;;;;27.60;13.65;;;;;;;7.82;100.00;101334.09;5054048;28;20091;-78
2021/04/30 07:41:18;;;;;;;27.58;12.05;;;;;;;7.93;100.00;101324.19;5049643;28;20744;-78
2021/04/30 07:43:43;;;;;;;28.23;12.88;;;;;;;7.84;100.00;101326.19;5046622;28;20079;-77
2021/04/30 07:46:09;;;;;;;27.98;13.23;;;;;;;7.85;100.00;101323.50;5051257;28;20036;-77
2021/04/30 07:48:34;;;;;;;24.10;12.60;;;;;;;7.79;100.00;101318.41;5042638;28;20114;-77
2021/04/30 07:51:02;;;;;;;34.38;12.85;;;;;;;7.86;100.00;101327.00;5053817;28;20032;-77
2021/04/30 07:53:27;;;;;;;33.25;12.73;;;;;;;7.82;100.00;101320.94;5046369;28;20029;-78
2021/04/30 07:55:53;;;;;;;34.40;13.82;;;;;;;7.84;100.00;101331.44;5049739;28;20768;-78
2021/04/30 07:58:20;;;;;;;31.38;14.35;;;;;;;7.88;100.00;101325.19;5048658;28;20032;-78
2021/04/30 08:00:46;;;;;;;33.00;16.42;;;;;;;7.89;100.00;101329.56;5051994;28;20072;-78
2021/04/30 08:03:11;;;;;;;27.25;14.68;;;;;;;7.84;100.00;101329.69;5051745;28;20101;-78
2021/04/30 08:05:36;;;;;;;25.67;15.45;;;;;;;7.85;100.00;101333.16;5048964;28;20676;-77
2021/04/30 08:08:03;;;;;;;33.38;15.15;;;;;;;7.86;100.00;101333.13;5052610;28;20029;-78
2021/04/30 08:10:29;;;;;;;33.30;16.77;;;;;;;7.81;100.00;101328.88;5052560;28;20099;-78
2021/04/30 08:12:54;;;;;;;37.95;17.92;;;;;;;7.79;100.00;101332.41;5048074;28;20088;-78
2021/04/30 08:15:21;;;;;;;31.95;16.40;;;;;;;7.73;100.00;101331.69;5054753;28;20551;-78
2021/04/30 08:17:46;;;;;;;36.20;18.85;;;;;;;7.70;100.00;101331.78;5054201;28;20056;-78
2021/04/30 08:20:12;;;;;;;32.88;20.73;;;;;;;7.70;100.00;101327.38;5056555;28;20128;-78
2021/04/30 08:22:37;;;;;;;42.70;21.10;;;;;;;7.73;100.00;101336.94;5047969;28;20413;-78
2021/04/30 08:25:03;;;;;;;41.58;23.77;;;;;;;7.75;100.00;101335.16;5054377;28;20082;-78
2021/04/30 08:27:29;;;;;;;43.17;23.38;;;;;;;7.81;100.00;101342.91;5050741;28;20040;-78
2021/04/30 08:29:54;;;;;;;41.78;23.90;;;;;;;7.79;100.00;101339.44;5036379;28;20033;-78
2021/04/30 08:32:19;;;;;;;41.08;23.98;;;;;;;7.82;100.00;101343.75;5041948;28;20023;-78
2021/04/30 08:34:45;;;;;;;38.53;24.02;;;;;;;7.82;100.00;101343.75;5056061;28;20021;-78
2021/04/30 08:37:11;;;;;;;42.05;25.45;;;;;;;7.76;100.00;101344.78;5048693;28;20040;-78
2021/04/30 08:39:37;;;;;;;41.88;27.50;;;;;;;7.86;100.00;101340.16;5036971;28;20029;-77
2021/04/30 08:42:02;;;;;;;41.10;26.23;;;;;;;7.94;100.00;101348.72;5039370;28;20571;-77
2021/04/30 08:44:27;;;;;;;44.65;27.27;;;;;;;7.97;100.00;101346.88;5047665;28;20029;-76
2021/04/30 08:46:53;;;;;;;46.60;25.67;;;;;;;8.08;100.00;101353.63;5051515;28;20033;-77
2021/04/30 08:49:18;;;;;;;41.92;25.83;;;;;;;8.12;100.00;101353.50;5050238;28;20048;-76
2021/04/30 08:51:44;;;;;;;43.15;26.25;;;;;;;8.00;100.00;101356.47;5045894;28;20025;-77
2021/04/30 08:54:10;;;;;;;47.85;27.88;;;;;;;8.11;100.00;101367.56;5044357;28;20154;-77
2021/04/30 08:56:45;;;;;;;43.20;27.05;;;;;;;7.93;100.00;101354.88;5052756;28;20036;-77
2021/04/30 08:59:13;;;;;;;43.17;27.65;;;;;;;8.15;100.00;101356.06;5054296;28;20386;-77
2021/04/30 09:01:39;;;;;;;48.83;27.88;;;;;;;8.23;100.00;101369.91;5044204;28;20030;-78
2021/04/30 09:04:06;;;;;;;49.40;29.10;;;;;;;8.21;100.00;101366.44;5049783;28;20041;-77
2021/04/30 09:06:39;;;;;;;47.95;29.70;;;;;;;8.31;100.00;101362.66;5041588;28;20697;-77
2021/04/30 09:09:10;;;;;;;44.70;28.70;;;;;;;8.31;100.00;101370.56;5048609;28;20444;-77
2021/04/30 09:11:47;;;;;;;46.45;27.30;;;;;;;8.34;100.00;101368.75;5036489;28;20033;-77
2021/04/30 09:14:40;;;;;;;46.75;27.48;;;;;;;8.60;100.00;101373.34;5042617;28;20032;-78
2021/04/30 09:17:09;;;;;;;46.10;27.13;;;;;;;8.83;100.00;101370.91;5039837;28;20048;-78
2021/04/30 09:19:37;;;;;;;44.53;28.13;;;;;;;8.81;100.00;101378.00;5055964;28;20033;-78
2021/04/30 09:22:06;;;;;;;46.65;27.83;;;;;;;8.95;100.00;101380.25;5044485;28;20384;-78
2021/04/30 09:24:31;;;;;;;44.15;27.70;;;;;;;8.92;100.00;101377.69;5046889;28;20021;-78
2021/04/30 09:26:58;;;;;;;46.13;27.52;;;;;;;9.06;100.00;101376.38;5041440;28;20034;-78
2021/04/30 09:29:26;;;;;;;42.95;28.48;;;;;;;9.10;100.00;101386.84;5040704;28;20040;-78
2021/04/30 09:31:52;;;;;;;45.17;26.52;;;;;;;9.00;100.00;101376.56;5034816;28;20016;-79
2021/04/30 09:34:28;;;;;;;50.47;29.25;;;;;;;8.94;100.00;101383.81;5039069;28;20028;-79
2021/04/30 09:37:11;;;;;;;40.83;26.98;;;;;;;9.22;100.00;101384.69;5038313;28;20029;-78
2021/04/30 09:39:54;;;;;;;44.25;26.85;;;;;;;9.12;100.00;101383.25;5044435;28;20029;-78
2021/04/30 09:42:23;;;;;;;51.72;27.60;;;;;;;9.32;100.00;101377.38;5033951;28;20089;-78
2021/04/30 09:44:51;;;;;;;43.35;25.25;;;;;;;9.90;100.00;101386.09;5049339;28;20478;-77
2021/04/30 09:47:21;;;;;;;40.90;28.17;;;;;;;10.15;100.00;101383.50;5041141;28;20032;-77
2021/04/30 09:49:49;;;;;;;39.17;26.13;;;;;;;10.44;100.00;101385.16;5042989;28;20059;-79
2021/04/30 09:52:15;;;;;;;45.88;29.58;;;;;;;10.75;100.00;101384.06;5048866;28;20025;-78
2021/04/30 09:54:41;;;;;;;40.47;27.17;;;;;;;10.54;100.00;101385.66;5045182;28;20017;-77
2021/04/30 09:57:26;;;;;;;43.97;25.48;;;;;;;10.08;100.00;101385.47;5041299;28;20029;-78
2021/04/30 09:59:52;;;;;;;45.97;27.10;;;;;;;10.14;100.00;101392.34;5043701;28;20045;-78
2021/04/30 10:02:19;;;;;;;35.88;25.85;;;;;;;10.50;100.00;101387.59;5041193;28;20041;-78
2021/04/30 10:04:47;;;;;;;38.13;25.58;;;;;;;10.39;100.00;101392.34;5052834;28;20028;-79
2021/04/30 10:07:15;;;;;;;39.03;26.08;;;;;;;10.20;100.00;101389.47;5044088;28;20041;-78
2021/04/30 10:09:42;;;;;;;37.00;26.55;;;;;;;10.05;100.00;101388.22;5045097;28;20139;-77
2021/04/30 10:12:23;;;;;;;39.80;25.63;;;;;;;9.49;100.00;101388.28;5041655;28;20407;-77
2021/04/30 10:14:50;;;;;;;42.20;24.58;;;;;;;9.19;100.00;101398.00;5047121;28;20040;-79
2021/04/30 10:17:15;;;;;;;34.20;15.07;;;;;;;8.74;100.00;101390.50;5047770;28;20070;-78
2021/04/30 10:19:42;;;;;;;20.20;12.52;;;;;;;8.13;100.00;101397.34;5046489;28;20151;-77
2021/04/30 10:22:13;;;;;;;22.33;11.80;;;;;;;7.98;100.00;101393.38;5040922;28;20363;-79
2021/04/30 10:24:45;;;;;;;20.65;12.40;;;;;;;8.03;100.00;101403.75;5042885;28;20032;-78
2021/04/30 10:27:17;;;;;;;22.15;11.95;;;;;;;7.97;100.00;101393.38;5054801;28;20460;-77
2021/04/30 10:29:48;;;;;;;20.40;11.60;;;;;;;7.90;100.00;101397.94;5040867;28;20477;-77
2021/04/30 10:32:17;;;;;;;18.08;10.32;;;;;;;7.77;100.00;101397.34;5043446;28;20025;-77
2021/04/30 10:34:47;;;;;;;14.02;8.80;;;;;;;7.69;100.00;101401.09;5047000;28;20029;-76
2021/04/30 10:37:21;;;;;;;16.20;8.60;;;;;;;7.61;100.00;101401.25;5042899;28;20036;-77
2021/04/30 10:39:58;;;;;;;15.27;8.55;;;;;;;7.63;100.00;101403.84;5048231;28;20021;-77
2021/04/30 10:42:28;;;;;;;12.65;7.85;;;;;;;7.62;100.00;101402.97;5044559;28;20041;-77
2021/04/30 10:45:00;;;;;;;15.70;9.60;;;;;;;7.84;100.00;101399.88;5051130;28;20500;-77
2021/04/30 10:47:26;;;;;;;17.50;8.43;;;;;;;7.82;100.00;101402.50;5049399;28;20059;-78
2021/04/30 10:50:12;;;;;;;19.30;9.85;;;;;;;7.87;100.00;101402.41;5057575;28;20334;-78
2021/04/30 10:52:37;;;;;;;23.17;10.13;;;;;;;7.88;100.00;101402.38;5056140;28;20063;-78
2021/04/30 10:55:07;;;;;;;14.50;10.50;;;;;;;8.09;100.00;101398.34;5046117;28;20084;-78
2021/04/30 10:57:50;;;;;;;17.58;10.80;;;;;;;8.43;100.00;101400.13;5047697;28;20024;-78
2021/04/30 11:00:16;;;;;;;18.33;11.85;;;;;;;8.25;100.00;101393.56;5049403;28;20063;-79
2021/04/30 11:02:42;;;;;;;18.48;8.48;;;;;;;8.31;100.00;101396.03;5052176;28;20766;-82
2021/04/30 11:05:21;;;;;;;24.95;10.95;;;;;;;8.36;100.00;101396.81;5056699;28;20139;-78
2021/04/30 11:07:54;;;;;;;20.88;9.80;;;;;;;8.65;100.00;101392.53;5050906;28;20036;-78
2021/04/30 11:13:16;;;;;;;19.85;9.25;;;;;;;8.79;100.00;101388.59;5055011;28;20028;-77
2021/04/30 11:15:44;;;;;;;18.27;8.85;;;;;;;8.59;100.00;101401.47;5055532;28;20036;-77